sensor_id;sensor_type;location;lat;lon;timestamp;P1;durP1;ratioP1;P2;durP2;ratioP2
70337;SDS011;57757;53.198;19.646;2022-08-27T00:00:47;13.90;;;5.20;;
70337;SDS011;57757;53.198;19.646;2022-08-27T00:03:15;11.60;;;5.40;;
70337;SDS011;57757;53.198;19.646;2022-08-27T00:05:43;13.20;;;5.00;;
70337;SDS011;57757;53.198;19.646;2022-08-27T00:08:11;11.60;;;5.20;;
70337;SDS011;57757;53.198;19.646;2022-08-27T00:10:39;11.40;;;5.60;;
70337;SDS011;57757;53.198;19.646;2022-08-27T00:13:08;12.80;;;5.40;;
70337;SDS011;57757;53.198;19.646;2022-08-27T00:15:35;18.00;;;5.80;;
70337;SDS011;57757;53.198;19.646;2022-08-27T00:18:03;12.30;;;5.20;;
70337;SDS011;57757;53.198;19.646;2022-08-27T00:20:32;13.40;;;5.20;;
70337;SDS011;57757;53.198;19.646;2022-08-27T00:23:00;13.30;;;5.60;;
70337;SDS011;57757;53.198;19.646;2022-08-27T00:25:27;12.50;;;5.20;;
70337;SDS011;57757;53.198;19.646;2022-08-27T00:27:55;10.20;;;5.40;;
70337;SDS011;57757;53.198;19.646;2022-08-27T00:30:23;13.10;;;5.50;;
70337;SDS011;57757;53.198;19.646;2022-08-27T00:32:50;11.60;;;5.30;;
70337;SDS011;57757;53.198;19.646;2022-08-27T00:35:18;13.10;;;5.50;;
70337;SDS011;57757;53.198;19.646;2022-08-27T00:37:46;13.30;;;5.70;;
70337;SDS011;57757;53.198;19.646;2022-08-27T00:40:15;16.00;;;5.80;;
70337;SDS011;57757;53.198;19.646;2022-08-27T00:42:45;10.80;;;5.80;;
70337;SDS011;57757;53.198;19.646;2022-08-27T00:45:13;13.70;;;5.60;;
70337;SDS011;57757;53.198;19.646;2022-08-27T00:47:44;10.70;;;5.40;;
70337;SDS011;57757;53.198;19.646;2022-08-27T00:50:16;11.60;;;5.90;;
70337;SDS011;57757;53.198;19.646;2022-08-27T00:53:10;11.10;;;5.70;;
70337;SDS011;57757;53.198;19.646;2022-08-27T00:55:42;18.20;;;6.70;;
70337;SDS011;57757;53.198;19.646;2022-08-27T01:00:45;11.90;;;5.80;;
70337;SDS011;57757;53.198;19.646;2022-08-27T01:03:14;15.30;;;6.20;;
70337;SDS011;57757;53.198;19.646;2022-08-27T01:05:42;12.60;;;6.10;;
70337;SDS011;57757;53.198;19.646;2022-08-27T01:08:13;16.70;;;6.30;;
70337;SDS011;57757;53.198;19.646;2022-08-27T01:10:45;12.80;;;6.00;;
70337;SDS011;57757;53.198;19.646;2022-08-27T01:13:14;13.10;;;5.60;;
70337;SDS011;57757;53.198;19.646;2022-08-27T01:15:44;13.00;;;5.50;;
70337;SDS011;57757;53.198;19.646;2022-08-27T01:18:13;12.30;;;6.10;;
70337;SDS011;57757;53.198;19.646;2022-08-27T01:23:21;16.70;;;6.90;;
70337;SDS011;57757;53.198;19.646;2022-08-27T01:25:59;12.20;;;6.30;;
70337;SDS011;57757;53.198;19.646;2022-08-27T01:28:29;16.10;;;5.80;;
70337;SDS011;57757;53.198;19.646;2022-08-27T01:31:04;11.70;;;5.90;;
70337;SDS011;57757;53.198;19.646;2022-08-27T01:33:34;14.50;;;6.50;;
70337;SDS011;57757;53.198;19.646;2022-08-27T01:36:01;14.10;;;5.90;;
70337;SDS011;57757;53.198;19.646;2022-08-27T01:38:30;14.50;;;6.00;;
70337;SDS011;57757;53.198;19.646;2022-08-27T01:40:59;13.90;;;6.40;;
70337;SDS011;57757;53.198;19.646;2022-08-27T01:43:27;13.30;;;6.00;;
70337;SDS011;57757;53.198;19.646;2022-08-27T01:45:57;14.10;;;6.00;;
70337;SDS011;57757;53.198;19.646;2022-08-27T01:48:25;13.70;;;6.30;;
70337;SDS011;57757;53.198;19.646;2022-08-27T01:50:53;12.80;;;6.20;;
70337;SDS011;57757;53.198;19.646;2022-08-27T01:53:21;16.80;;;6.80;;
70337;SDS011;57757;53.198;19.646;2022-08-27T01:55:52;13.20;;;6.60;;
70337;SDS011;57757;53.198;19.646;2022-08-27T01:58:22;17.40;;;6.40;;
70337;SDS011;57757;53.198;19.646;2022-08-27T02:00:54;17.30;;;6.80;;
70337;SDS011;57757;53.198;19.646;2022-08-27T02:03:25;15.70;;;6.50;;
70337;SDS011;57757;53.198;19.646;2022-08-27T02:05:53;14.60;;;7.40;;
70337;SDS011;57757;53.198;19.646;2022-08-27T02:08:21;15.00;;;6.60;;
70337;SDS011;57757;53.198;19.646;2022-08-27T02:10:49;17.70;;;6.90;;
70337;SDS011;57757;53.198;19.646;2022-08-27T02:13:17;14.00;;;6.70;;
70337;SDS011;57757;53.198;19.646;2022-08-27T02:15:45;11.50;;;6.00;;
70337;SDS011;57757;53.198;19.646;2022-08-27T02:18:12;12.90;;;6.10;;
70337;SDS011;57757;53.198;19.646;2022-08-27T02:20:42;16.20;;;6.30;;
70337;SDS011;57757;53.198;19.646;2022-08-27T02:23:11;14.50;;;6.70;;
70337;SDS011;57757;53.198;19.646;2022-08-27T02:25:39;13.70;;;6.50;;
70337;SDS011;57757;53.198;19.646;2022-08-27T02:28:08;13.60;;;6.20;;
70337;SDS011;57757;53.198;19.646;2022-08-27T02:30:36;13.70;;;6.40;;
70337;SDS011;57757;53.198;19.646;2022-08-27T02:33:04;16.40;;;6.80;;
70337;SDS011;57757;53.198;19.646;2022-08-27T02:35:33;13.20;;;6.60;;
70337;SDS011;57757;53.198;19.646;2022-08-27T02:38:05;12.30;;;6.30;;
70337;SDS011;57757;53.198;19.646;2022-08-27T02:40:34;14.00;;;6.80;;
70337;SDS011;57757;53.198;19.646;2022-08-27T02:43:03;16.60;;;7.30;;
70337;SDS011;57757;53.198;19.646;2022-08-27T02:45:31;16.00;;;6.80;;
70337;SDS011;57757;53.198;19.646;2022-08-27T02:48:02;15.80;;;7.50;;
70337;SDS011;57757;53.198;19.646;2022-08-27T02:50:31;13.00;;;6.90;;
70337;SDS011;57757;53.198;19.646;2022-08-27T02:53:00;15.60;;;6.70;;
70337;SDS011;57757;53.198;19.646;2022-08-27T02:55:29;18.00;;;6.90;;
70337;SDS011;57757;53.198;19.646;2022-08-27T02:57:57;14.60;;;6.40;;
70337;SDS011;57757;53.198;19.646;2022-08-27T03:00:24;18.00;;;7.20;;
70337;SDS011;57757;53.198;19.646;2022-08-27T03:02:55;11.80;;;6.60;;
70337;SDS011;57757;53.198;19.646;2022-08-27T03:05:23;17.00;;;6.70;;
70337;SDS011;57757;53.198;19.646;2022-08-27T03:07:51;20.90;;;7.20;;
70337;SDS011;57757;53.198;19.646;2022-08-27T03:10:19;14.90;;;6.90;;
70337;SDS011;57757;53.198;19.646;2022-08-27T03:12:47;15.20;;;6.70;;
70337;SDS011;57757;53.198;19.646;2022-08-27T03:15:16;14.40;;;6.50;;
70337;SDS011;57757;53.198;19.646;2022-08-27T03:17:45;13.80;;;6.20;;
70337;SDS011;57757;53.198;19.646;2022-08-27T03:20:29;16.60;;;7.00;;
70337;SDS011;57757;53.198;19.646;2022-08-27T03:22:57;15.10;;;6.40;;
70337;SDS011;57757;53.198;19.646;2022-08-27T03:25:24;13.10;;;6.30;;
70337;SDS011;57757;53.198;19.646;2022-08-27T03:27:52;13.90;;;7.40;;
70337;SDS011;57757;53.198;19.646;2022-08-27T03:30:20;14.60;;;7.20;;
70337;SDS011;57757;53.198;19.646;2022-08-27T03:32:50;16.50;;;7.00;;
70337;SDS011;57757;53.198;19.646;2022-08-27T03:35:18;14.40;;;7.00;;
70337;SDS011;57757;53.198;19.646;2022-08-27T03:37:47;13.70;;;7.00;;
70337;SDS011;57757;53.198;19.646;2022-08-27T03:40:16;16.30;;;7.00;;
70337;SDS011;57757;53.198;19.646;2022-08-27T03:42:45;14.00;;;7.10;;
70337;SDS011;57757;53.198;19.646;2022-08-27T03:45:12;15.30;;;7.10;;
70337;SDS011;57757;53.198;19.646;2022-08-27T03:47:40;15.20;;;6.70;;
70337;SDS011;57757;53.198;19.646;2022-08-27T03:50:08;14.50;;;7.00;;
70337;SDS011;57757;53.198;19.646;2022-08-27T03:52:37;15.70;;;7.80;;
70337;SDS011;57757;53.198;19.646;2022-08-27T03:55:06;13.50;;;7.30;;
70337;SDS011;57757;53.198;19.646;2022-08-27T03:57:34;13.10;;;7.10;;
70337;SDS011;57757;53.198;19.646;2022-08-27T04:00:04;14.70;;;6.80;;
70337;SDS011;57757;53.198;19.646;2022-08-27T04:02:35;15.30;;;7.40;;
70337;SDS011;57757;53.198;19.646;2022-08-27T04:05:03;17.90;;;7.50;;
70337;SDS011;57757;53.198;19.646;2022-08-27T04:07:32;15.80;;;7.40;;
70337;SDS011;57757;53.198;19.646;2022-08-27T04:09:59;15.60;;;6.40;;
70337;SDS011;57757;53.198;19.646;2022-08-27T04:12:27;18.70;;;6.40;;
70337;SDS011;57757;53.198;19.646;2022-08-27T04:14:54;17.90;;;7.20;;
70337;SDS011;57757;53.198;19.646;2022-08-27T04:17:22;14.20;;;7.10;;
70337;SDS011;57757;53.198;19.646;2022-08-27T04:19:50;17.00;;;7.10;;
70337;SDS011;57757;53.198;19.646;2022-08-27T04:22:18;14.20;;;7.00;;
70337;SDS011;57757;53.198;19.646;2022-08-27T04:24:47;14.80;;;6.80;;
70337;SDS011;57757;53.198;19.646;2022-08-27T04:27:14;15.50;;;6.90;;
70337;SDS011;57757;53.198;19.646;2022-08-27T04:29:42;14.90;;;7.50;;
70337;SDS011;57757;53.198;19.646;2022-08-27T04:32:10;13.30;;;6.70;;
70337;SDS011;57757;53.198;19.646;2022-08-27T04:34:39;15.10;;;6.80;;
70337;SDS011;57757;53.198;19.646;2022-08-27T04:37:06;13.10;;;7.00;;
70337;SDS011;57757;53.198;19.646;2022-08-27T04:39:36;15.70;;;7.20;;
70337;SDS011;57757;53.198;19.646;2022-08-27T04:42:04;16.90;;;7.10;;
70337;SDS011;57757;53.198;19.646;2022-08-27T04:44:32;20.10;;;7.70;;
70337;SDS011;57757;53.198;19.646;2022-08-27T04:47:00;14.10;;;7.30;;
70337;SDS011;57757;53.198;19.646;2022-08-27T04:49:30;16.10;;;7.50;;
70337;SDS011;57757;53.198;19.646;2022-08-27T04:52:00;12.90;;;6.70;;
70337;SDS011;57757;53.198;19.646;2022-08-27T04:54:29;13.70;;;7.10;;
70337;SDS011;57757;53.198;19.646;2022-08-27T04:57:02;15.00;;;6.90;;
70337;SDS011;57757;53.198;19.646;2022-08-27T04:59:32;14.40;;;7.10;;
70337;SDS011;57757;53.198;19.646;2022-08-27T05:02:02;14.90;;;6.90;;
70337;SDS011;57757;53.198;19.646;2022-08-27T05:04:32;13.50;;;6.70;;
70337;SDS011;57757;53.198;19.646;2022-08-27T05:07:07;12.20;;;6.90;;
70337;SDS011;57757;53.198;19.646;2022-08-27T05:09:37;18.30;;;7.40;;
70337;SDS011;57757;53.198;19.646;2022-08-27T05:12:05;14.50;;;7.00;;
70337;SDS011;57757;53.198;19.646;2022-08-27T05:14:33;18.70;;;6.90;;
70337;SDS011;57757;53.198;19.646;2022-08-27T05:17:01;14.80;;;7.00;;
70337;SDS011;57757;53.198;19.646;2022-08-27T05:19:29;16.50;;;7.20;;
70337;SDS011;57757;53.198;19.646;2022-08-27T05:21:57;15.00;;;7.50;;
70337;SDS011;57757;53.198;19.646;2022-08-27T05:24:25;14.00;;;7.80;;
70337;SDS011;57757;53.198;19.646;2022-08-27T05:26:52;15.50;;;6.90;;
70337;SDS011;57757;53.198;19.646;2022-08-27T05:29:20;14.80;;;6.80;;
70337;SDS011;57757;53.198;19.646;2022-08-27T05:31:48;13.50;;;6.70;;
70337;SDS011;57757;53.198;19.646;2022-08-27T05:34:16;15.70;;;7.60;;
70337;SDS011;57757;53.198;19.646;2022-08-27T05:36:52;13.60;;;7.30;;
70337;SDS011;57757;53.198;19.646;2022-08-27T05:39:21;12.90;;;7.80;;
70337;SDS011;57757;53.198;19.646;2022-08-27T05:41:48;15.50;;;8.10;;
70337;SDS011;57757;53.198;19.646;2022-08-27T05:44:18;16.10;;;7.20;;
70337;SDS011;57757;53.198;19.646;2022-08-27T05:47:05;13.20;;;7.20;;
70337;SDS011;57757;53.198;19.646;2022-08-27T05:49:33;14.10;;;7.20;;
70337;SDS011;57757;53.198;19.646;2022-08-27T05:52:01;14.60;;;7.70;;
70337;SDS011;57757;53.198;19.646;2022-08-27T05:54:29;16.30;;;7.30;;
70337;SDS011;57757;53.198;19.646;2022-08-27T05:56:56;19.70;;;7.90;;
70337;SDS011;57757;53.198;19.646;2022-08-27T05:59:24;16.10;;;7.20;;
70337;SDS011;57757;53.198;19.646;2022-08-27T06:02:07;18.00;;;7.90;;
70337;SDS011;57757;53.198;19.646;2022-08-27T06:04:35;15.10;;;6.90;;
70337;SDS011;57757;53.198;19.646;2022-08-27T06:07:03;16.10;;;7.40;;
70337;SDS011;57757;53.198;19.646;2022-08-27T06:09:32;12.10;;;7.00;;
70337;SDS011;57757;53.198;19.646;2022-08-27T06:12:00;12.00;;;7.00;;
70337;SDS011;57757;53.198;19.646;2022-08-27T06:14:28;13.20;;;7.10;;
70337;SDS011;57757;53.198;19.646;2022-08-27T06:16:58;13.20;;;7.40;;
70337;SDS011;57757;53.198;19.646;2022-08-27T06:19:27;16.20;;;7.90;;
70337;SDS011;57757;53.198;19.646;2022-08-27T06:21:54;15.40;;;7.50;;
70337;SDS011;57757;53.198;19.646;2022-08-27T06:24:37;16.10;;;7.20;;
70337;SDS011;57757;53.198;19.646;2022-08-27T06:27:08;17.10;;;7.60;;
70337;SDS011;57757;53.198;19.646;2022-08-27T06:29:38;19.80;;;7.60;;
70337;SDS011;57757;53.198;19.646;2022-08-27T06:32:06;17.30;;;7.50;;
70337;SDS011;57757;53.198;19.646;2022-08-27T06:34:35;19.50;;;7.70;;
70337;SDS011;57757;53.198;19.646;2022-08-27T06:37:04;15.90;;;7.80;;
70337;SDS011;57757;53.198;19.646;2022-08-27T06:39:33;17.60;;;7.40;;
70337;SDS011;57757;53.198;19.646;2022-08-27T06:42:04;17.00;;;7.70;;
70337;SDS011;57757;53.198;19.646;2022-08-27T06:44:32;19.70;;;7.80;;
70337;SDS011;57757;53.198;19.646;2022-08-27T06:47:00;14.30;;;7.80;;
70337;SDS011;57757;53.198;19.646;2022-08-27T06:49:30;21.20;;;7.60;;
70337;SDS011;57757;53.198;19.646;2022-08-27T06:51:59;16.50;;;7.70;;
70337;SDS011;57757;53.198;19.646;2022-08-27T06:54:27;18.50;;;7.80;;
70337;SDS011;57757;53.198;19.646;2022-08-27T06:56:56;15.00;;;7.40;;
70337;SDS011;57757;53.198;19.646;2022-08-27T06:59:26;14.00;;;7.60;;
70337;SDS011;57757;53.198;19.646;2022-08-27T07:01:54;16.80;;;7.60;;
70337;SDS011;57757;53.198;19.646;2022-08-27T07:04:23;13.30;;;6.90;;
70337;SDS011;57757;53.198;19.646;2022-08-27T07:07:01;15.20;;;7.70;;
70337;SDS011;57757;53.198;19.646;2022-08-27T07:09:30;24.70;;;12.80;;
70337;SDS011;57757;53.198;19.646;2022-08-27T07:12:00;17.60;;;8.50;;
70337;SDS011;57757;53.198;19.646;2022-08-27T07:14:28;13.20;;;7.20;;
70337;SDS011;57757;53.198;19.646;2022-08-27T07:17:04;16.30;;;7.10;;
70337;SDS011;57757;53.198;19.646;2022-08-27T07:19:37;16.00;;;7.40;;
70337;SDS011;57757;53.198;19.646;2022-08-27T07:22:08;13.90;;;7.30;;
70337;SDS011;57757;53.198;19.646;2022-08-27T07:24:37;14.60;;;7.30;;
70337;SDS011;57757;53.198;19.646;2022-08-27T07:27:05;15.00;;;7.60;;
70337;SDS011;57757;53.198;19.646;2022-08-27T07:29:33;17.40;;;7.60;;
70337;SDS011;57757;53.198;19.646;2022-08-27T07:32:01;18.20;;;7.60;;
70337;SDS011;57757;53.198;19.646;2022-08-27T07:34:29;14.70;;;7.40;;
70337;SDS011;57757;53.198;19.646;2022-08-27T07:36:56;14.90;;;7.40;;
70337;SDS011;57757;53.198;19.646;2022-08-27T07:39:23;21.10;;;8.30;;
70337;SDS011;57757;53.198;19.646;2022-08-27T07:41:54;14.40;;;7.40;;
70337;SDS011;57757;53.198;19.646;2022-08-27T07:44:37;13.50;;;7.40;;
70337;SDS011;57757;53.198;19.646;2022-08-27T07:47:06;13.60;;;7.90;;
70337;SDS011;57757;53.198;19.646;2022-08-27T07:49:34;15.40;;;7.30;;
70337;SDS011;57757;53.198;19.646;2022-08-27T07:52:02;15.10;;;7.70;;
70337;SDS011;57757;53.198;19.646;2022-08-27T07:54:30;19.40;;;8.10;;
70337;SDS011;57757;53.198;19.646;2022-08-27T07:56:57;18.00;;;7.10;;
70337;SDS011;57757;53.198;19.646;2022-08-27T07:59:25;16.70;;;7.90;;
70337;SDS011;57757;53.198;19.646;2022-08-27T08:01:54;15.90;;;7.60;;
70337;SDS011;57757;53.198;19.646;2022-08-27T08:04:23;13.40;;;7.50;;
70337;SDS011;57757;53.198;19.646;2022-08-27T08:06:52;13.30;;;6.80;;
70337;SDS011;57757;53.198;19.646;2022-08-27T08:09:22;17.00;;;7.60;;
70337;SDS011;57757;53.198;19.646;2022-08-27T08:11:51;14.50;;;7.70;;
70337;SDS011;57757;53.198;19.646;2022-08-27T08:14:19;15.00;;;7.50;;
70337;SDS011;57757;53.198;19.646;2022-08-27T08:16:47;23.10;;;13.70;;
70337;SDS011;57757;53.198;19.646;2022-08-27T08:19:15;15.00;;;7.70;;
70337;SDS011;57757;53.198;19.646;2022-08-27T08:21:42;15.60;;;7.30;;
70337;SDS011;57757;53.198;19.646;2022-08-27T08:24:10;11.90;;;7.10;;
70337;SDS011;57757;53.198;19.646;2022-08-27T08:26:38;13.70;;;6.60;;
70337;SDS011;57757;53.198;19.646;2022-08-27T08:29:07;15.50;;;6.90;;
70337;SDS011;57757;53.198;19.646;2022-08-27T08:31:44;17.80;;;7.40;;
70337;SDS011;57757;53.198;19.646;2022-08-27T08:34:17;12.10;;;7.00;;
70337;SDS011;57757;53.198;19.646;2022-08-27T08:36:46;18.30;;;7.20;;
70337;SDS011;57757;53.198;19.646;2022-08-27T08:39:21;12.10;;;7.00;;
70337;SDS011;57757;53.198;19.646;2022-08-27T08:41:57;15.70;;;7.80;;
70337;SDS011;57757;53.198;19.646;2022-08-27T08:44:30;13.90;;;7.70;;
70337;SDS011;57757;53.198;19.646;2022-08-27T08:57:55;12.40;;;6.50;;
70337;SDS011;57757;53.198;19.646;2022-08-27T09:00:42;16.30;;;6.70;;
70337;SDS011;57757;53.198;19.646;2022-08-27T09:03:12;10.60;;;6.40;;
70337;SDS011;57757;53.198;19.646;2022-08-27T09:05:44;13.30;;;6.30;;
70337;SDS011;57757;53.198;19.646;2022-08-27T09:08:21;12.60;;;6.90;;
70337;SDS011;57757;53.198;19.646;2022-08-27T09:13:50;11.40;;;6.20;;
70337;SDS011;57757;53.198;19.646;2022-08-27T09:16:21;15.30;;;6.90;;
70337;SDS011;57757;53.198;19.646;2022-08-27T09:18:50;12.60;;;6.80;;
70337;SDS011;57757;53.198;19.646;2022-08-27T09:27:29;10.80;;;6.60;;
70337;SDS011;57757;53.198;19.646;2022-08-27T09:29:58;10.20;;;5.70;;
70337;SDS011;57757;53.198;19.646;2022-08-27T09:32:34;13.70;;;6.60;;
70337;SDS011;57757;53.198;19.646;2022-08-27T09:35:03;11.40;;;6.10;;
70337;SDS011;57757;53.198;19.646;2022-08-27T09:37:40;13.60;;;6.60;;
70337;SDS011;57757;53.198;19.646;2022-08-27T09:45:47;10.20;;;6.20;;
70337;SDS011;57757;53.198;19.646;2022-08-27T09:48:19;10.10;;;6.00;;
70337;SDS011;57757;53.198;19.646;2022-08-27T09:50:53;13.90;;;6.60;;
70337;SDS011;57757;53.198;19.646;2022-08-27T09:53:30;11.40;;;5.90;;
70337;SDS011;57757;53.198;19.646;2022-08-27T09:56:01;11.90;;;6.50;;
70337;SDS011;57757;53.198;19.646;2022-08-27T10:01:35;10.60;;;5.60;;
70337;SDS011;57757;53.198;19.646;2022-08-27T10:04:16;15.20;;;6.10;;
70337;SDS011;57757;53.198;19.646;2022-08-27T10:06:50;9.70;;;6.20;;
70337;SDS011;57757;53.198;19.646;2022-08-27T10:09:21;11.70;;;6.40;;
70337;SDS011;57757;53.198;19.646;2022-08-27T10:14:52;13.00;;;6.80;;
70337;SDS011;57757;53.198;19.646;2022-08-27T10:26:00;13.30;;;6.80;;
70337;SDS011;57757;53.198;19.646;2022-08-27T10:45:42;13.70;;;6.10;;
70337;SDS011;57757;53.198;19.646;2022-08-27T10:48:29;11.50;;;6.20;;
70337;SDS011;57757;53.198;19.646;2022-08-27T10:56:28;13.40;;;6.50;;
70337;SDS011;57757;53.198;19.646;2022-08-27T11:01:50;16.30;;;7.00;;
70337;SDS011;57757;53.198;19.646;2022-08-27T11:04:36;16.90;;;7.50;;
70337;SDS011;57757;53.198;19.646;2022-08-27T11:07:12;13.90;;;7.40;;
70337;SDS011;57757;53.198;19.646;2022-08-27T11:09:48;15.50;;;7.20;;
70337;SDS011;57757;53.198;19.646;2022-08-27T11:23:43;15.50;;;7.60;;
70337;SDS011;57757;53.198;19.646;2022-08-27T11:26:15;12.00;;;6.50;;
70337;SDS011;57757;53.198;19.646;2022-08-27T11:28:43;19.90;;;7.40;;
70337;SDS011;57757;53.198;19.646;2022-08-27T11:31:21;14.00;;;6.00;;
70337;SDS011;57757;53.198;19.646;2022-08-27T11:44:52;11.20;;;6.20;;
70337;SDS011;57757;53.198;19.646;2022-08-27T11:47:29;11.00;;;5.50;;
70337;SDS011;57757;53.198;19.646;2022-08-27T11:49:57;10.10;;;5.80;;
70337;SDS011;57757;53.198;19.646;2022-08-27T11:52:28;10.80;;;6.60;;
70337;SDS011;57757;53.198;19.646;2022-08-27T11:55:13;13.90;;;7.20;;
70337;SDS011;57757;53.198;19.646;2022-08-27T12:00:44;8.70;;;5.90;;
70337;SDS011;57757;53.198;19.646;2022-08-27T12:08:53;9.70;;;6.50;;
70337;SDS011;57757;53.198;19.646;2022-08-27T12:11:35;10.70;;;6.50;;
70337;SDS011;57757;53.198;19.646;2022-08-27T12:14:28;14.20;;;7.00;;
70337;SDS011;57757;53.198;19.646;2022-08-27T12:17:19;19.80;;;7.10;;
70337;SDS011;57757;53.198;19.646;2022-08-27T12:28:41;10.70;;;6.60;;
70337;SDS011;57757;53.198;19.646;2022-08-27T12:31:09;11.90;;;6.80;;
70337;SDS011;57757;53.198;19.646;2022-08-27T12:33:44;12.30;;;5.80;;
70337;SDS011;57757;53.198;19.646;2022-08-27T12:38:55;10.30;;;7.50;;
70337;SDS011;57757;53.198;19.646;2022-08-27T12:41:32;20.20;;;8.30;;
70337;SDS011;57757;53.198;19.646;2022-08-27T12:44:12;13.10;;;7.40;;
70337;SDS011;57757;53.198;19.646;2022-08-27T12:46:46;12.20;;;8.20;;
70337;SDS011;57757;53.198;19.646;2022-08-27T12:49:17;11.80;;;7.70;;
70337;SDS011;57757;53.198;19.646;2022-08-27T12:52:12;10.90;;;8.10;;
70337;SDS011;57757;53.198;19.646;2022-08-27T13:03:39;16.90;;;9.20;;
70337;SDS011;57757;53.198;19.646;2022-08-27T13:06:20;15.90;;;12.20;;
70337;SDS011;57757;53.198;19.646;2022-08-27T13:08:54;19.60;;;10.90;;
70337;SDS011;57757;53.198;19.646;2022-08-27T13:11:24;20.20;;;16.30;;
70337;SDS011;57757;53.198;19.646;2022-08-27T13:16:49;16.10;;;9.00;;
70337;SDS011;57757;53.198;19.646;2022-08-27T13:22:20;12.20;;;9.50;;
70337;SDS011;57757;53.198;19.646;2022-08-27T13:24:50;15.10;;;9.50;;
70337;SDS011;57757;53.198;19.646;2022-08-27T13:27:27;12.60;;;8.10;;
70337;SDS011;57757;53.198;19.646;2022-08-27T13:30:02;12.00;;;8.60;;
70337;SDS011;57757;53.198;19.646;2022-08-27T13:32:34;11.00;;;8.10;;
70337;SDS011;57757;53.198;19.646;2022-08-27T13:35:03;16.20;;;10.70;;
70337;SDS011;57757;53.198;19.646;2022-08-27T13:37:34;12.70;;;9.50;;
70337;SDS011;57757;53.198;19.646;2022-08-27T13:40:07;13.00;;;9.10;;
70337;SDS011;57757;53.198;19.646;2022-08-27T13:42:38;16.70;;;9.50;;
70337;SDS011;57757;53.198;19.646;2022-08-27T13:45:09;12.70;;;8.30;;
70337;SDS011;57757;53.198;19.646;2022-08-27T13:47:40;9.70;;;7.50;;
70337;SDS011;57757;53.198;19.646;2022-08-27T13:50:18;13.30;;;8.10;;
70337;SDS011;57757;53.198;19.646;2022-08-27T13:52:50;14.00;;;8.90;;
70337;SDS011;57757;53.198;19.646;2022-08-27T13:55:38;11.10;;;8.40;;
70337;SDS011;57757;53.198;19.646;2022-08-27T13:58:16;10.80;;;7.40;;
70337;SDS011;57757;53.198;19.646;2022-08-27T14:00:50;13.90;;;8.70;;
70337;SDS011;57757;53.198;19.646;2022-08-27T14:06:05;12.90;;;7.40;;
70337;SDS011;57757;53.198;19.646;2022-08-27T14:08:33;13.50;;;7.70;;
70337;SDS011;57757;53.198;19.646;2022-08-27T14:11:03;11.10;;;7.70;;
70337;SDS011;57757;53.198;19.646;2022-08-27T14:13:40;12.90;;;7.20;;
70337;SDS011;57757;53.198;19.646;2022-08-27T14:22:03;11.30;;;7.10;;
70337;SDS011;57757;53.198;19.646;2022-08-27T14:24:31;10.90;;;6.40;;
70337;SDS011;57757;53.198;19.646;2022-08-27T14:27:03;11.50;;;6.40;;
70337;SDS011;57757;53.198;19.646;2022-08-27T14:29:35;12.40;;;7.40;;
70337;SDS011;57757;53.198;19.646;2022-08-27T14:32:02;11.20;;;7.30;;
70337;SDS011;57757;53.198;19.646;2022-08-27T14:34:33;14.70;;;7.00;;
70337;SDS011;57757;53.198;19.646;2022-08-27T14:37:03;13.80;;;7.80;;
70337;SDS011;57757;53.198;19.646;2022-08-27T14:39:31;10.50;;;7.90;;
70337;SDS011;57757;53.198;19.646;2022-08-27T14:41:59;12.00;;;8.20;;
70337;SDS011;57757;53.198;19.646;2022-08-27T14:44:27;12.10;;;8.50;;
70337;SDS011;57757;53.198;19.646;2022-08-27T14:46:54;12.20;;;7.70;;
70337;SDS011;57757;53.198;19.646;2022-08-27T14:49:26;13.20;;;8.80;;
70337;SDS011;57757;53.198;19.646;2022-08-27T14:52:02;10.00;;;7.00;;
70337;SDS011;57757;53.198;19.646;2022-08-27T14:54:31;12.50;;;6.50;;
70337;SDS011;57757;53.198;19.646;2022-08-27T14:57:00;12.10;;;7.10;;
70337;SDS011;57757;53.198;19.646;2022-08-27T14:59:29;15.40;;;9.00;;
70337;SDS011;57757;53.198;19.646;2022-08-27T15:01:57;125.10;;;91.40;;
70337;SDS011;57757;53.198;19.646;2022-08-27T15:04:26;165.40;;;114.80;;
70337;SDS011;57757;53.198;19.646;2022-08-27T15:06:55;97.80;;;66.70;;
70337;SDS011;57757;53.198;19.646;2022-08-27T15:09:23;58.90;;;38.80;;
70337;SDS011;57757;53.198;19.646;2022-08-27T15:11:51;35.20;;;25.30;;
70337;SDS011;57757;53.198;19.646;2022-08-27T15:14:26;21.80;;;14.80;;
70337;SDS011;57757;53.198;19.646;2022-08-27T15:16:55;19.60;;;12.10;;
70337;SDS011;57757;53.198;19.646;2022-08-27T15:19:23;17.40;;;11.30;;
70337;SDS011;57757;53.198;19.646;2022-08-27T15:21:52;16.60;;;11.30;;
70337;SDS011;57757;53.198;19.646;2022-08-27T15:24:25;17.90;;;10.90;;
70337;SDS011;57757;53.198;19.646;2022-08-27T15:26:59;18.00;;;11.00;;
70337;SDS011;57757;53.198;19.646;2022-08-27T15:29:27;13.30;;;10.30;;
70337;SDS011;57757;53.198;19.646;2022-08-27T15:31:55;14.00;;;9.20;;
70337;SDS011;57757;53.198;19.646;2022-08-27T15:34:23;15.40;;;11.40;;
70337;SDS011;57757;53.198;19.646;2022-08-27T15:36:51;16.00;;;11.90;;
70337;SDS011;57757;53.198;19.646;2022-08-27T15:39:18;22.90;;;12.20;;
70337;SDS011;57757;53.198;19.646;2022-08-27T15:41:46;17.80;;;11.00;;
70337;SDS011;57757;53.198;19.646;2022-08-27T15:44:34;12.70;;;8.80;;
70337;SDS011;57757;53.198;19.646;2022-08-27T15:47:06;12.70;;;8.70;;
70337;SDS011;57757;53.198;19.646;2022-08-27T15:49:33;15.10;;;10.00;;
70337;SDS011;57757;53.198;19.646;2022-08-27T15:52:01;12.50;;;10.10;;
70337;SDS011;57757;53.198;19.646;2022-08-27T15:54:30;13.40;;;9.00;;
70337;SDS011;57757;53.198;19.646;2022-08-27T15:56:57;16.90;;;10.30;;
70337;SDS011;57757;53.198;19.646;2022-08-27T15:59:26;14.90;;;10.20;;
70337;SDS011;57757;53.198;19.646;2022-08-27T16:01:53;26.80;;;11.80;;
70337;SDS011;57757;53.198;19.646;2022-08-27T16:04:21;25.20;;;10.90;;
70337;SDS011;57757;53.198;19.646;2022-08-27T16:06:49;17.90;;;10.20;;
70337;SDS011;57757;53.198;19.646;2022-08-27T16:09:17;14.10;;;10.40;;
70337;SDS011;57757;53.198;19.646;2022-08-27T16:11:45;14.30;;;10.00;;
70337;SDS011;57757;53.198;19.646;2022-08-27T16:14:13;15.50;;;10.10;;
70337;SDS011;57757;53.198;19.646;2022-08-27T16:16:43;27.50;;;13.50;;
70337;SDS011;57757;53.198;19.646;2022-08-27T16:19:12;14.60;;;9.70;;
70337;SDS011;57757;53.198;19.646;2022-08-27T16:21:43;22.90;;;10.30;;
70337;SDS011;57757;53.198;19.646;2022-08-27T16:24:12;21.50;;;10.80;;
70337;SDS011;57757;53.198;19.646;2022-08-27T16:26:39;25.80;;;10.90;;
70337;SDS011;57757;53.198;19.646;2022-08-27T16:29:07;15.40;;;11.30;;
70337;SDS011;57757;53.198;19.646;2022-08-27T16:31:35;16.10;;;9.40;;
70337;SDS011;57757;53.198;19.646;2022-08-27T16:34:06;12.20;;;8.90;;
70337;SDS011;57757;53.198;19.646;2022-08-27T16:36:48;13.60;;;9.50;;
70337;SDS011;57757;53.198;19.646;2022-08-27T16:39:16;12.20;;;8.80;;
70337;SDS011;57757;53.198;19.646;2022-08-27T16:41:43;13.50;;;8.70;;
70337;SDS011;57757;53.198;19.646;2022-08-27T16:44:11;13.20;;;8.70;;
70337;SDS011;57757;53.198;19.646;2022-08-27T16:46:39;11.50;;;9.10;;
70337;SDS011;57757;53.198;19.646;2022-08-27T16:49:07;14.40;;;8.60;;
70337;SDS011;57757;53.198;19.646;2022-08-27T16:51:50;13.30;;;9.10;;
70337;SDS011;57757;53.198;19.646;2022-08-27T16:54:18;15.20;;;9.40;;
70337;SDS011;57757;53.198;19.646;2022-08-27T16:56:47;13.90;;;9.40;;